SKUC/AUC METAR and TAF weather

Enter ICAO airport designator
Station Type Date Time Source
SKUC METAR 2022/01/29 02:00 UTC NOAA

SKUC 290200Z 00000KT CAVOK 25/19 Q1009 RMK A2982


Station Type Date Time Source
SKUC Decoded METAR 2022/01/29 02:00 UTC NOAA

Arauca / Santiago Perez, Colombia (SKUC) 07-04N 070-44W 128M
Jan 28, 2022 - 09:00 PM EST / 2022.01.29 0200 UTC
Wind: Calm:0
Visibility: greater than 7 mile(s):0
Temperature: 77 F (25 C)
Dew Point: 66 F (19 C)
Relative Humidity: 69%
Pressure (altimeter): 29.80 in. Hg (1009 hPa)
ob: SKUC 290200Z 00000KT CAVOK 25/19 Q1009 RMK A2982
cycle: 2

Station Type Date Time Source
SKUC TAF UTC NOAA

Error!

Example: see airport list